CTV955 WARR-WIMM
Flight info
| Callsign | CTV955 |
|---|---|
| Flight time | N/A |
| Altitude | 36000 |
| Route | LASEM T2 KALUT T6 CKG T10 AKPER |
| Aircraft | A320/M-SDE3FGHIRWY/LB1 |
Departure
| Time | 2026-05-05 10:25 |
|---|---|
| Airport | Juanda International Airport (WARR) |
Arrival
| Time | N/A |
|---|---|
| Airport | Kualanamu International Airport (WIMM) |
| Time | Latitude | Longitude | Altitude | Speed | Heading |
|---|---|---|---|---|---|
| 2026-05-05 10:08 | -7.37587 | 112.79470 | 9 ft | 0 kts | 9° |
| 2026-05-05 10:15 | -7.37592 | 112.79469 | 10 ft | 2 kts | 8° |
| 2026-05-05 10:15 | -7.37608 | 112.79466 | 10 ft | 2 kts | 8° |
| 2026-05-05 10:15 | -7.37624 | 112.79464 | 11 ft | 2 kts | 6° |
| 2026-05-05 10:15 | -7.37641 | 112.79463 | 10 ft | 2 kts | 3° |
| 2026-05-05 10:16 | -7.37649 | 112.79462 | 9 ft | 2 kts | 360° |
| 2026-05-05 10:16 | -7.37659 | 112.79462 | 9 ft | 2 kts | 354° |
| 2026-05-05 10:16 | -7.37675 | 112.79466 | 9 ft | 2 kts | 316° |
| 2026-05-05 10:16 | -7.37683 | 112.79477 | 9 ft | 1 kts | 277° |
| 2026-05-05 10:17 | -7.37683 | 112.79480 | 12 ft | 0 kts | 278° |
| 2026-05-05 10:19 | -7.37684 | 112.79465 | 12 ft | 5 kts | 254° |
| 2026-05-05 10:19 | -7.37735 | 112.79445 | 9 ft | 11 kts | 189° |
| 2026-05-05 10:19 | -7.37830 | 112.79430 | 9 ft | 14 kts | 189° |
| 2026-05-05 10:19 | -7.37920 | 112.79401 | 9 ft | 12 kts | 229° |
| 2026-05-05 10:20 | -7.37911 | 112.79319 | 9 ft | 12 kts | 279° |
| 2026-05-05 10:20 | -7.37893 | 112.79214 | 9 ft | 19 kts | 279° |
| 2026-05-05 10:20 | -7.37866 | 112.79045 | 9 ft | 28 kts | 279° |
| 2026-05-05 10:20 | -7.37833 | 112.78842 | 9 ft | 31 kts | 279° |
| 2026-05-05 10:21 | -7.37796 | 112.78623 | 9 ft | 33 kts | 279° |
| 2026-05-05 10:21 | -7.37762 | 112.78390 | 11 ft | 34 kts | 279° |
| 2026-05-05 10:21 | -7.37719 | 112.78147 | 11 ft | 36 kts | 280° |
| 2026-05-05 10:21 | -7.37679 | 112.77894 | 9 ft | 37 kts | 278° |
| 2026-05-05 10:22 | -7.37654 | 112.77721 | 9 ft | 38 kts | 279° |
| 2026-05-05 10:22 | -7.37608 | 112.77446 | 8 ft | 17 kts | 272° |
| 2026-05-05 10:22 | -7.37653 | 112.77385 | 10 ft | 6 kts | 202° |
| 2026-05-05 10:22 | -7.37678 | 112.77380 | 8 ft | 5 kts | 190° |
| 2026-05-05 10:23 | -7.37715 | 112.77373 | 8 ft | 3 kts | 190° |
| 2026-05-05 10:23 | -7.37730 | 112.77370 | 8 ft | 2 kts | 190° |
| 2026-05-05 10:23 | -7.37755 | 112.77366 | 9 ft | 7 kts | 182° |
| 2026-05-05 10:23 | -7.37776 | 112.77407 | 9 ft | 4 kts | 101° |
| 2026-05-05 10:24 | -7.37777 | 112.77410 | 9 ft | 0 kts | 100° |
| 2026-05-05 10:24 | -7.37781 | 112.77433 | 9 ft | 23 kts | 100° |
| 2026-05-05 10:24 | -7.37846 | 112.77841 | 9 ft | 92 kts | 99° |
| 2026-05-05 10:24 | -7.37979 | 112.78668 | 10 ft | 144 kts | 99° |
| 2026-05-05 10:25 | -7.38159 | 112.79759 | 323 ft | 161 kts | 98° |
| 2026-05-05 10:25 | -7.38352 | 112.80878 | 905 ft | 162 kts | 99° |
| 2026-05-05 10:25 | -7.38542 | 112.81994 | 1548 ft | 162 kts | 99° |
| 2026-05-05 10:25 | -7.38743 | 112.83156 | 1890 ft | 179 kts | 98° |
| 2026-05-05 10:26 | -7.38963 | 112.84479 | 2084 ft | 202 kts | 99° |
| 2026-05-05 10:26 | -7.39208 | 112.85960 | 2299 ft | 227 kts | 98° |
| 2026-05-05 10:26 | -7.39479 | 112.87604 | 2614 ft | 250 kts | 99° |
| 2026-05-05 10:26 | -7.39758 | 112.89374 | 3208 ft | 259 kts | 95° |
| 2026-05-05 10:27 | -7.39511 | 112.91171 | 3927 ft | 265 kts | 67° |
| 2026-05-05 10:27 | -7.38421 | 112.92685 | 4648 ft | 272 kts | 40° |
| 2026-05-05 10:27 | -7.36738 | 112.93570 | 5332 ft | 279 kts | 14° |
| 2026-05-05 10:27 | -7.34787 | 112.93593 | 6032 ft | 287 kts | 348° |
| 2026-05-05 10:28 | -7.32871 | 112.93070 | 6729 ft | 290 kts | 345° |
| 2026-05-05 10:28 | -7.30928 | 112.92515 | 7447 ft | 292 kts | 345° |
| 2026-05-05 10:28 | -7.28967 | 112.91955 | 8160 ft | 294 kts | 345° |
| 2026-05-05 10:28 | -7.26989 | 112.91391 | 8884 ft | 296 kts | 346° |
| 2026-05-05 10:29 | -7.24998 | 112.90828 | 9599 ft | 299 kts | 346° |
| 2026-05-05 10:29 | -7.22990 | 112.90264 | 10204 ft | 303 kts | 346° |
| 2026-05-05 10:29 | -7.20875 | 112.89676 | 10363 ft | 326 kts | 346° |
| 2026-05-05 10:29 | -7.18621 | 112.89051 | 10481 ft | 347 kts | 346° |
| 2026-05-05 10:30 | -7.16326 | 112.88164 | 10855 ft | 359 kts | 332° |
| 2026-05-05 10:30 | -7.14306 | 112.86656 | 11397 ft | 365 kts | 315° |
| 2026-05-05 10:30 | -7.12752 | 112.84629 | 11948 ft | 369 kts | 299° |
| 2026-05-05 10:30 | -7.11801 | 112.82217 | 12501 ft | 373 kts | 283° |
| 2026-05-05 10:31 | -7.11324 | 112.79648 | 13052 ft | 376 kts | 279° |
| 2026-05-05 10:31 | -7.10867 | 112.77045 | 13613 ft | 379 kts | 279° |
| 2026-05-05 10:31 | -7.10406 | 112.74420 | 14101 ft | 381 kts | 279° |
| 2026-05-05 10:31 | -7.09940 | 112.71783 | 14590 ft | 384 kts | 280° |
| 2026-05-05 10:32 | -7.09467 | 112.69130 | 15080 ft | 386 kts | 280° |
| 2026-05-05 10:32 | -7.08986 | 112.66456 | 15581 ft | 388 kts | 280° |
| 2026-05-05 10:32 | -7.08502 | 112.63775 | 16071 ft | 390 kts | 280° |
| 2026-05-05 10:32 | -7.08017 | 112.61078 | 16553 ft | 392 kts | 280° |
| 2026-05-05 10:33 | -7.07532 | 112.58364 | 17021 ft | 395 kts | 280° |
| 2026-05-05 10:33 | -7.07374 | 112.57480 | 17174 ft | 395 kts | 280° |
| 2026-05-05 10:33 | -7.07064 | 112.55778 | 17462 ft | 397 kts | 280° |
| 2026-05-05 10:33 | -7.06574 | 112.53076 | 17904 ft | 399 kts | 280° |
| 2026-05-05 10:34 | -7.06076 | 112.50318 | 18324 ft | 401 kts | 280° |
| 2026-05-05 10:34 | -7.05577 | 112.47551 | 18693 ft | 403 kts | 280° |
| 2026-05-05 10:34 | -7.05077 | 112.44758 | 19055 ft | 406 kts | 279° |
| 2026-05-05 10:34 | -7.04577 | 112.41959 | 19409 ft | 408 kts | 280° |
| 2026-05-05 10:35 | -7.04072 | 112.39130 | 19754 ft | 411 kts | 279° |
| 2026-05-05 10:35 | -7.03564 | 112.36291 | 20097 ft | 414 kts | 280° |
| 2026-05-05 10:35 | -7.03046 | 112.33430 | 20439 ft | 416 kts | 280° |
| 2026-05-05 10:35 | -7.02516 | 112.30560 | 20778 ft | 419 kts | 282° |
| 2026-05-05 10:36 | -7.01659 | 112.27754 | 21109 ft | 421 kts | 291° |
| 2026-05-05 10:36 | -7.00564 | 112.25001 | 21441 ft | 424 kts | 291° |
| 2026-05-05 10:36 | -6.99463 | 112.22237 | 21764 ft | 426 kts | 291° |
| 2026-05-05 10:36 | -6.98358 | 112.19463 | 22080 ft | 429 kts | 291° |
| 2026-05-05 10:37 | -6.97249 | 112.16667 | 22393 ft | 431 kts | 291° |
| 2026-05-05 10:37 | -6.96052 | 112.13892 | 22692 ft | 434 kts | 298° |
| 2026-05-05 10:37 | -6.94469 | 112.11302 | 22995 ft | 436 kts | 303° |
| 2026-05-05 10:37 | -6.92790 | 112.08747 | 23312 ft | 438 kts | 303° |
| 2026-05-05 10:38 | -6.91104 | 112.06182 | 23577 ft | 440 kts | 303° |
| 2026-05-05 10:38 | -6.89414 | 112.03603 | 23836 ft | 442 kts | 303° |
| 2026-05-05 10:38 | -6.87720 | 112.01007 | 24112 ft | 444 kts | 303° |
| 2026-05-05 10:38 | -6.86025 | 111.98410 | 24377 ft | 445 kts | 303° |
| 2026-05-05 10:39 | -6.84315 | 111.95797 | 24646 ft | 447 kts | 303° |
| 2026-05-05 10:39 | -6.82607 | 111.93199 | 24907 ft | 448 kts | 303° |
| 2026-05-05 10:39 | -6.80898 | 111.90598 | 25162 ft | 450 kts | 303° |
| 2026-05-05 10:39 | -6.79154 | 111.87939 | 25415 ft | 451 kts | 303° |
| 2026-05-05 10:40 | -6.77421 | 111.85292 | 25668 ft | 453 kts | 303° |
| 2026-05-05 10:40 | -6.75710 | 111.82680 | 25904 ft | 454 kts | 303° |
| 2026-05-05 10:40 | -6.73966 | 111.80019 | 26141 ft | 456 kts | 303° |
| 2026-05-05 10:40 | -6.72217 | 111.77349 | 26376 ft | 457 kts | 303° |
| 2026-05-05 10:41 | -6.70467 | 111.74674 | 26622 ft | 459 kts | 303° |
| 2026-05-05 10:41 | -6.68707 | 111.71984 | 26866 ft | 460 kts | 303° |
| 2026-05-05 10:41 | -6.66939 | 111.69286 | 27102 ft | 462 kts | 303° |
| 2026-05-05 10:41 | -6.65164 | 111.66582 | 27346 ft | 464 kts | 303° |
| 2026-05-05 10:42 | -6.61644 | 111.61131 | 27816 ft | 466 kts | 299° |
| 2026-05-05 10:42 | -6.60122 | 111.58230 | 28032 ft | 468 kts | 298° |
| 2026-05-05 10:42 | -6.58619 | 111.55328 | 28253 ft | 470 kts | 298° |
| 2026-05-05 10:43 | -6.57109 | 111.52413 | 28468 ft | 471 kts | 298° |
| 2026-05-05 10:43 | -6.55591 | 111.49481 | 28674 ft | 472 kts | 298° |
| 2026-05-05 10:43 | -6.54087 | 111.46581 | 28878 ft | 474 kts | 298° |
| 2026-05-05 10:43 | -6.52562 | 111.43646 | 29060 ft | 476 kts | 298° |
| 2026-05-05 10:44 | -6.51026 | 111.40691 | 29259 ft | 477 kts | 298° |
| 2026-05-05 10:44 | -6.49482 | 111.37723 | 29452 ft | 479 kts | 298° |
| 2026-05-05 10:44 | -6.47932 | 111.34746 | 29652 ft | 480 kts | 298° |
| 2026-05-05 10:44 | -6.46383 | 111.31769 | 29844 ft | 482 kts | 298° |
| 2026-05-05 10:45 | -6.44832 | 111.28788 | 30024 ft | 483 kts | 298° |
| 2026-05-05 10:45 | -6.43272 | 111.25782 | 30261 ft | 482 kts | 298° |
| 2026-05-05 10:45 | -6.41725 | 111.22801 | 30526 ft | 481 kts | 298° |
| 2026-05-05 10:45 | -6.40179 | 111.19826 | 30796 ft | 479 kts | 298° |
| 2026-05-05 10:46 | -6.38637 | 111.16856 | 31067 ft | 478 kts | 298° |
| 2026-05-05 10:46 | -6.37103 | 111.13903 | 31343 ft | 476 kts | 298° |
| 2026-05-05 10:46 | -6.35569 | 111.10955 | 31630 ft | 475 kts | 298° |
| 2026-05-05 10:46 | -6.34022 | 111.08026 | 31919 ft | 473 kts | 299° |
| 2026-05-05 10:47 | -6.32459 | 111.05119 | 32208 ft | 471 kts | 299° |
| 2026-05-05 10:47 | -6.30898 | 111.02240 | 32499 ft | 469 kts | 300° |
| 2026-05-05 10:47 | -6.29339 | 110.99369 | 32806 ft | 467 kts | 299° |
| 2026-05-05 10:47 | -6.27788 | 110.96502 | 33106 ft | 465 kts | 299° |
| 2026-05-05 10:48 | -6.26246 | 110.93642 | 33412 ft | 464 kts | 299° |
| 2026-05-05 10:48 | -6.24714 | 110.90794 | 33699 ft | 462 kts | 299° |
| 2026-05-05 10:48 | -6.23190 | 110.87959 | 33968 ft | 461 kts | 299° |
| 2026-05-05 10:48 | -6.21674 | 110.85132 | 34212 ft | 459 kts | 299° |
| 2026-05-05 10:49 | -6.20165 | 110.82315 | 34439 ft | 458 kts | 299° |
| 2026-05-05 10:49 | -6.18654 | 110.79500 | 34667 ft | 457 kts | 299° |
| 2026-05-05 10:49 | -6.17159 | 110.76720 | 34860 ft | 457 kts | 299° |
| 2026-05-05 10:49 | -6.15650 | 110.73914 | 35071 ft | 456 kts | 299° |
| 2026-05-05 10:50 | -6.14147 | 110.71118 | 35268 ft | 455 kts | 299° |
| 2026-05-05 10:50 | -6.12645 | 110.68316 | 35463 ft | 455 kts | 299° |
| 2026-05-05 10:50 | -6.11148 | 110.65525 | 35645 ft | 454 kts | 299° |
| 2026-05-05 10:50 | -6.09643 | 110.62732 | 35810 ft | 454 kts | 299° |
| 2026-05-05 10:51 | -6.08137 | 110.59942 | 35865 ft | 454 kts | 299° |
| 2026-05-05 10:51 | -6.05124 | 110.54354 | 35865 ft | 454 kts | 299° |
| 2026-05-05 10:52 | -6.02116 | 110.48769 | 35862 ft | 454 kts | 299° |
| 2026-05-05 10:52 | -5.99117 | 110.43183 | 35864 ft | 455 kts | 299° |
| 2026-05-05 10:53 | -5.96867 | 110.37253 | 35870 ft | 457 kts | 281° |
| 2026-05-05 10:53 | -5.96500 | 110.30878 | 35863 ft | 459 kts | 271° |
| 2026-05-05 10:54 | -5.96510 | 110.24513 | 35862 ft | 459 kts | 271° |
| 2026-05-05 10:54 | -5.96504 | 110.18093 | 35864 ft | 459 kts | 271° |
| 2026-05-05 10:55 | -5.96507 | 110.11678 | 35867 ft | 460 kts | 271° |
| 2026-05-05 10:55 | -5.96510 | 110.05259 | 35877 ft | 460 kts | 271° |
| 2026-05-05 10:56 | -5.96505 | 109.98840 | 35879 ft | 459 kts | 271° |
| 2026-05-05 10:56 | -5.96497 | 109.92418 | 35880 ft | 459 kts | 271° |
| 2026-05-05 10:57 | -5.96488 | 109.86009 | 35880 ft | 459 kts | 271° |
| 2026-05-05 10:57 | -5.96486 | 109.79584 | 35881 ft | 459 kts | 271° |
| 2026-05-05 10:58 | -5.96483 | 109.73171 | 35882 ft | 460 kts | 271° |
| 2026-05-05 10:58 | -5.96479 | 109.66740 | 35880 ft | 460 kts | 271° |
| 2026-05-05 10:59 | -5.96472 | 109.60317 | 35878 ft | 461 kts | 271° |
| 2026-05-05 10:59 | -5.96463 | 109.53869 | 35880 ft | 461 kts | 271° |
| 2026-05-05 11:00 | -5.96461 | 109.47454 | 35882 ft | 461 kts | 271° |
| 2026-05-05 11:00 | -5.96456 | 109.41016 | 35885 ft | 461 kts | 271° |
| 2026-05-05 11:01 | -5.96439 | 109.34570 | 35885 ft | 461 kts | 271° |
| 2026-05-05 11:01 | -5.96415 | 109.28121 | 35885 ft | 461 kts | 271° |
| 2026-05-05 11:02 | -5.96405 | 109.21678 | 35885 ft | 461 kts | 271° |
| 2026-05-05 11:02 | -5.96396 | 109.15243 | 35887 ft | 461 kts | 271° |
| 2026-05-05 11:03 | -5.96383 | 109.08789 | 35885 ft | 461 kts | 271° |
| 2026-05-05 11:03 | -5.96374 | 109.02348 | 35880 ft | 461 kts | 271° |
| 2026-05-05 11:04 | -5.96359 | 108.95914 | 35880 ft | 461 kts | 271° |
| 2026-05-05 11:04 | -5.96340 | 108.89512 | 35877 ft | 461 kts | 271° |
| 2026-05-05 11:05 | -5.96318 | 108.83069 | 35872 ft | 461 kts | 271° |
| 2026-05-05 11:05 | -5.96297 | 108.76623 | 35875 ft | 462 kts | 271° |
| 2026-05-05 11:06 | -5.96279 | 108.70174 | 35883 ft | 462 kts | 271° |
| 2026-05-05 11:06 | -5.96266 | 108.63717 | 35883 ft | 462 kts | 271° |
| 2026-05-05 11:07 | -5.96249 | 108.57254 | 35885 ft | 462 kts | 271° |
| 2026-05-05 11:07 | -5.96234 | 108.50799 | 35880 ft | 462 kts | 271° |
| 2026-05-05 11:08 | -5.96214 | 108.44348 | 35879 ft | 462 kts | 271° |
| 2026-05-05 11:08 | -5.96207 | 108.37888 | 35876 ft | 462 kts | 271° |
| 2026-05-05 11:09 | -5.96207 | 108.31421 | 35878 ft | 462 kts | 271° |
| 2026-05-05 11:09 | -5.96200 | 108.26053 | 35879 ft | 463 kts | 271° |
| 2026-05-05 11:10 | -5.96192 | 108.19593 | 35886 ft | 463 kts | 271° |
| 2026-05-05 11:10 | -5.96187 | 108.13116 | 35886 ft | 463 kts | 271° |
| 2026-05-05 11:11 | -5.96177 | 108.06649 | 35888 ft | 463 kts | 271° |
| 2026-05-05 11:11 | -5.96169 | 107.99122 | 35891 ft | 463 kts | 271° |
| 2026-05-05 11:12 | -5.96159 | 107.92650 | 35890 ft | 463 kts | 271° |
| 2026-05-05 11:12 | -5.96161 | 107.87263 | 35890 ft | 463 kts | 271° |
| 2026-05-05 11:13 | -5.96167 | 107.80750 | 35887 ft | 463 kts | 271° |
| 2026-05-05 11:13 | -5.96169 | 107.74326 | 35886 ft | 463 kts | 271° |
| 2026-05-05 11:14 | -5.96166 | 107.67860 | 35884 ft | 464 kts | 271° |
| 2026-05-05 11:14 | -5.96163 | 107.61422 | 35882 ft | 464 kts | 271° |
| 2026-05-05 11:15 | -5.96161 | 107.54947 | 35885 ft | 464 kts | 271° |
| 2026-05-05 11:15 | -5.96162 | 107.48468 | 35889 ft | 464 kts | 271° |
| 2026-05-05 11:16 | -5.95788 | 107.42018 | 35889 ft | 462 kts | 286° |
| 2026-05-05 11:16 | -5.94656 | 107.39016 | 35890 ft | 459 kts | 297° |
| 2026-05-05 11:16 | -5.93269 | 107.36140 | 35886 ft | 459 kts | 297° |
| 2026-05-05 11:17 | -5.90458 | 107.30368 | 35881 ft | 460 kts | 297° |
| 2026-05-05 11:17 | -5.87638 | 107.24601 | 35881 ft | 460 kts | 297° |
| 2026-05-05 11:18 | -5.84825 | 107.18815 | 35880 ft | 461 kts | 297° |
| 2026-05-05 11:18 | -5.82020 | 107.13036 | 35879 ft | 461 kts | 297° |
| 2026-05-05 11:19 | -5.79209 | 107.07248 | 35877 ft | 461 kts | 297° |
| 2026-05-05 11:19 | -5.76389 | 107.01459 | 35875 ft | 461 kts | 297° |
| 2026-05-05 11:20 | -5.73578 | 106.95677 | 35878 ft | 461 kts | 297° |
| 2026-05-05 11:20 | -5.70760 | 106.89882 | 35878 ft | 462 kts | 297° |
| 2026-05-05 11:21 | -5.67939 | 106.84086 | 35880 ft | 462 kts | 297° |
| 2026-05-05 11:21 | -5.65116 | 106.78286 | 35883 ft | 462 kts | 297° |
| 2026-05-05 11:22 | -5.62293 | 106.72484 | 35881 ft | 463 kts | 297° |
| 2026-05-05 11:22 | -5.59475 | 106.66680 | 35880 ft | 462 kts | 297° |
| 2026-05-05 11:23 | -5.56668 | 106.60915 | 35882 ft | 462 kts | 297° |
| 2026-05-05 11:23 | -5.53838 | 106.55117 | 35878 ft | 462 kts | 297° |
| 2026-05-05 11:24 | -5.51014 | 106.49324 | 35876 ft | 463 kts | 297° |
| 2026-05-05 11:24 | -5.48183 | 106.43511 | 35877 ft | 463 kts | 297° |
| 2026-05-05 11:25 | -5.45351 | 106.37707 | 35880 ft | 463 kts | 297° |
| 2026-05-05 11:25 | -5.42521 | 106.31903 | 35880 ft | 464 kts | 297° |
| 2026-05-05 11:26 | -5.39684 | 106.26093 | 35884 ft | 464 kts | 297° |
| 2026-05-05 11:26 | -5.36845 | 106.20285 | 35886 ft | 464 kts | 297° |
| 2026-05-05 11:27 | -5.34005 | 106.14465 | 35886 ft | 464 kts | 297° |
| 2026-05-05 11:27 | -5.31175 | 106.08651 | 35884 ft | 464 kts | 296° |
| 2026-05-05 11:28 | -5.28342 | 106.02830 | 35885 ft | 464 kts | 297° |
| 2026-05-05 11:28 | -5.25500 | 105.97019 | 35891 ft | 464 kts | 297° |
| 2026-05-05 11:29 | -5.22650 | 105.91208 | 35891 ft | 464 kts | 297° |
| 2026-05-05 11:29 | -5.19673 | 105.85475 | 35887 ft | 463 kts | 304° |
| 2026-05-05 11:30 | -5.15352 | 105.80791 | 35882 ft | 460 kts | 323° |
| 2026-05-05 11:30 | -5.10136 | 105.77085 | 35884 ft | 460 kts | 325° |
| 2026-05-05 11:31 | -5.04901 | 105.73352 | 35882 ft | 461 kts | 325° |
| 2026-05-05 11:31 | -4.99686 | 105.69630 | 35879 ft | 461 kts | 325° |
| 2026-05-05 11:32 | -4.94459 | 105.65911 | 35883 ft | 461 kts | 325° |
| 2026-05-05 11:32 | -4.89228 | 105.62196 | 35880 ft | 461 kts | 325° |
| 2026-05-05 11:33 | -4.83996 | 105.58481 | 35876 ft | 460 kts | 326° |
| 2026-05-05 11:33 | -4.78772 | 105.54768 | 35879 ft | 460 kts | 325° |
| 2026-05-05 11:34 | -4.73552 | 105.51053 | 35878 ft | 460 kts | 326° |
| 2026-05-05 11:34 | -4.68326 | 105.47346 | 35881 ft | 460 kts | 326° |
| 2026-05-05 11:35 | -4.63099 | 105.43634 | 35879 ft | 460 kts | 325° |
| 2026-05-05 11:35 | -4.57887 | 105.39922 | 35877 ft | 459 kts | 325° |
| 2026-05-05 11:36 | -4.52674 | 105.36216 | 35875 ft | 459 kts | 326° |
| 2026-05-05 11:36 | -4.47458 | 105.32519 | 35875 ft | 459 kts | 326° |
| 2026-05-05 11:37 | -4.42248 | 105.28829 | 35874 ft | 459 kts | 326° |
| 2026-05-05 11:37 | -4.37044 | 105.25128 | 35872 ft | 459 kts | 325° |
| 2026-05-05 11:38 | -4.31835 | 105.21429 | 35871 ft | 459 kts | 325° |
| 2026-05-05 11:38 | -4.26628 | 105.17738 | 35868 ft | 459 kts | 325° |
| 2026-05-05 11:39 | -4.21410 | 105.14039 | 35867 ft | 459 kts | 325° |
| 2026-05-05 11:39 | -4.16194 | 105.10350 | 35864 ft | 459 kts | 325° |
| 2026-05-05 11:40 | -4.10972 | 105.06641 | 35865 ft | 460 kts | 324° |
| 2026-05-05 11:40 | -4.06217 | 105.02432 | 35863 ft | 460 kts | 317° |
| 2026-05-05 11:41 | -4.01534 | 104.98049 | 35862 ft | 461 kts | 317° |